createdAt,value
2022-09-18T00:03:41.132Z,5.72
2022-09-18T00:09:04.944Z,5.97
2022-09-18T00:14:27.117Z,5.40
2022-09-18T00:19:49.046Z,5.40
2022-09-18T00:25:10.856Z,6.68
2022-09-18T00:30:32.865Z,5.43
2022-09-18T00:35:54.648Z,6.15
2022-09-18T00:41:22.003Z,5.55
2022-09-18T00:46:45.655Z,6.25
2022-09-18T00:52:08.906Z,5.80
2022-09-18T00:57:33.474Z,5.22
2022-09-18T01:02:56.399Z,5.55
2022-09-18T01:08:44.609Z,5.78
2022-09-18T01:14:18.229Z,5.53
2022-09-18T01:20:02.856Z,5.30
2022-09-18T01:25:33.617Z,4.82
2022-09-18T01:31:01.943Z,5.30
2022-09-18T01:36:29.640Z,5.32
2022-09-18T01:41:53.535Z,5.07
2022-09-18T01:47:18.662Z,5.07
2022-09-18T01:52:48.906Z,4.93
2022-09-18T01:58:15.480Z,5.53
2022-09-18T02:03:45.533Z,5.10
2022-09-18T02:09:09.573Z,5.28
2022-09-18T02:14:54.999Z,5.38
2022-09-18T02:20:24.946Z,4.90
2022-09-18T02:25:52.116Z,4.90
2022-09-18T02:31:13.925Z,4.80
2022-09-18T02:36:38.473Z,5.00
2022-09-18T02:42:27.113Z,4.88
2022-09-18T02:48:25.160Z,4.45
2022-09-18T02:53:59.047Z,3.90
2022-09-18T02:59:42.099Z,3.97
2022-09-18T03:05:04.380Z,3.53
2022-09-18T03:10:26.131Z,4.85
2022-09-18T03:15:48.010Z,4.90
2022-09-18T03:21:09.958Z,4.35
2022-09-18T03:26:31.960Z,4.90
2022-09-18T03:31:54.321Z,5.63
2022-09-18T03:37:16.104Z,5.20
2022-09-18T03:42:38.001Z,5.50
2022-09-18T03:47:59.754Z,5.43
2022-09-18T03:53:21.550Z,4.68
2022-09-18T03:58:43.460Z,4.60
2022-09-18T04:04:05.256Z,4.70
2022-09-18T04:09:27.013Z,4.93
2022-09-18T04:14:48.816Z,5.55
2022-09-18T04:20:10.804Z,5.65
2022-09-18T04:25:32.924Z,7.15
2022-09-18T04:30:54.761Z,6.63
2022-09-18T04:36:16.614Z,6.68
2022-09-18T04:41:38.783Z,6.38
2022-09-18T04:47:00.599Z,6.75
2022-09-18T04:52:22.557Z,6.93
2022-09-18T04:57:44.324Z,7.03
2022-09-18T05:03:06.859Z,6.70
2022-09-18T05:08:29.528Z,7.20
2022-09-18T05:13:51.316Z,7.85
2022-09-18T05:19:13.084Z,6.47
2022-09-18T05:24:35.281Z,6.95
2022-09-18T05:29:57.072Z,6.97
2022-09-18T05:35:18.858Z,7.40
2022-09-18T05:40:40.701Z,6.50
2022-09-18T05:46:02.522Z,7.03
2022-09-18T05:51:24.292Z,6.22
2022-09-18T05:56:46.270Z,6.68
2022-09-18T06:02:10.674Z,6.32
2022-09-18T06:07:32.535Z,6.40
2022-09-18T06:13:14.758Z,5.95
2022-09-18T06:18:36.580Z,5.97
2022-09-18T06:23:58.441Z,6.25
2022-09-18T06:29:20.640Z,5.88
2022-09-18T06:34:42.751Z,5.85
2022-09-18T06:40:05.117Z,6.22
2022-09-18T06:45:28.278Z,5.55
2022-09-18T06:50:57.380Z,5.38
2022-09-18T06:56:19.178Z,5.95
2022-09-18T07:01:41.144Z,5.20
2022-09-18T07:07:03.011Z,5.35
2022-09-18T07:12:24.811Z,4.97
2022-09-18T07:17:46.833Z,4.78
2022-09-18T07:23:08.853Z,4.28
2022-09-18T07:28:30.690Z,3.35
2022-09-18T07:33:53.980Z,3.40
2022-09-18T07:39:15.751Z,3.53
2022-09-18T07:44:37.859Z,3.28
2022-09-18T07:49:59.640Z,3.50
2022-09-18T07:55:22.185Z,3.90
2022-09-18T08:00:45.392Z,3.38
2022-09-18T08:06:07.254Z,2.67
2022-09-18T08:11:29.134Z,3.33
2022-09-18T08:16:50.909Z,2.60
2022-09-18T08:22:12.818Z,2.90
2022-09-18T08:27:42.335Z,3.28
2022-09-18T08:33:06.809Z,3.88
2022-09-18T08:38:28.581Z,3.95
2022-09-18T08:44:03.659Z,3.83
2022-09-18T08:49:33.650Z,3.40
2022-09-18T08:54:55.946Z,2.85
2022-09-18T09:00:24.598Z,3.03
2022-09-18T09:05:52.093Z,2.90
2022-09-18T09:11:28.328Z,2.40
2022-09-18T09:17:04.134Z,2.28
2022-09-18T09:22:43.495Z,2.10
2022-09-18T09:28:26.338Z,2.33
2022-09-18T09:34:18.375Z,2.85
2022-09-18T09:39:49.701Z,2.90
2022-09-18T09:45:20.945Z,1.95
2022-09-18T09:50:48.669Z,2.33
2022-09-18T09:56:42.781Z,1.73
2022-09-18T10:02:29.925Z,2.10
2022-09-18T10:08:32.455Z,2.30
2022-09-18T10:14:19.287Z,1.80
2022-09-18T10:19:42.985Z,1.60
2022-09-18T10:25:14.537Z,1.70
2022-09-18T10:31:02.465Z,1.80
2022-09-18T10:36:37.265Z,1.92
2022-09-18T10:42:03.964Z,1.85
2022-09-18T10:47:28.869Z,1.95
2022-09-18T10:52:50.723Z,1.77
2022-09-18T10:58:14.321Z,1.60
2022-09-18T11:03:47.776Z,2.03
2022-09-18T11:09:11.143Z,1.90
2022-09-18T11:14:41.272Z,1.60
2022-09-18T11:20:05.891Z,1.70
2022-09-18T11:25:29.079Z,1.30
2022-09-18T11:30:58.427Z,1.52
2022-09-18T11:36:27.805Z,1.73
2022-09-18T11:41:51.259Z,1.67
2022-09-18T11:47:31.154Z,1.88
2022-09-18T11:52:54.666Z,1.55
2022-09-18T11:58:31.682Z,1.60
2022-09-18T12:04:01.805Z,1.90
2022-09-18T12:09:31.328Z,1.33
2022-09-18T12:15:03.306Z,1.88
2022-09-18T12:20:31.135Z,1.58
2022-09-18T12:25:52.981Z,1.20
2022-09-18T12:31:33.261Z,1.55
2022-09-18T12:37:20.847Z,1.30
2022-09-18T12:42:52.535Z,1.75
2022-09-18T12:48:47.645Z,1.50
2022-09-18T12:54:28.084Z,1.33
2022-09-18T13:00:04.224Z,1.20
2022-09-18T13:05:40.827Z,1.80
2022-09-18T13:11:16.868Z,1.20
2022-09-18T13:16:56.628Z,1.15
2022-09-18T13:22:20.436Z,1.40
2022-09-18T13:27:42.254Z,1.52
2022-09-18T13:33:04.692Z,1.65
2022-09-18T13:38:28.814Z,1.63
2022-09-18T13:44:00.996Z,1.65
2022-09-18T13:49:32.174Z,1.80
2022-09-18T13:55:14.954Z,2.83
2022-09-18T14:00:36.740Z,1.90
2022-09-18T14:05:58.583Z,1.73
2022-09-18T14:11:24.459Z,2.83
2022-09-18T14:16:46.303Z,2.17
2022-09-18T14:22:24.200Z,2.53
2022-09-18T14:27:54.589Z,2.88
2022-09-18T14:33:20.688Z,5.10
2022-09-18T14:38:42.451Z,2.40
2022-09-18T14:44:04.324Z,2.65
2022-09-18T14:49:55.744Z,3.13
2022-09-18T14:55:36.144Z,3.10
2022-09-18T15:00:58.135Z,3.47
2022-09-18T15:06:49.773Z,3.70
2022-09-18T15:12:16.487Z,3.70
2022-09-18T15:22:59.989Z,4.53
2022-09-18T15:28:24.539Z,4.63
2022-09-18T15:33:55.915Z,4.53
2022-09-18T15:39:30.029Z,4.40
2022-09-18T15:45:09.511Z,4.65
2022-09-18T15:50:37.511Z,4.85
2022-09-18T15:56:02.244Z,5.85
2022-09-18T16:01:46.277Z,5.38
2022-09-18T16:07:21.765Z,5.15
2022-09-18T16:12:43.950Z,4.47
2022-09-18T16:18:26.321Z,5.82
2022-09-18T16:23:54.924Z,5.30
2022-09-18T16:29:22.934Z,5.07
2022-09-18T16:34:44.907Z,5.18
2022-09-18T16:40:18.185Z,5.10
2022-09-18T16:45:40.043Z,5.32
2022-09-18T16:51:01.879Z,5.43
2022-09-18T16:56:28.037Z,5.10
2022-09-18T17:02:03.289Z,4.70
2022-09-18T17:07:25.981Z,4.80
2022-09-18T17:12:47.852Z,4.70
2022-09-18T17:18:09.665Z,4.80
2022-09-18T17:23:31.995Z,4.43
2022-09-18T17:28:54.006Z,4.80
2022-09-18T17:34:16.052Z,4.47
2022-09-18T17:39:38.034Z,4.13
2022-09-18T17:44:59.979Z,3.83
2022-09-18T17:50:21.846Z,4.20
2022-09-18T17:55:45.059Z,3.80
2022-09-18T18:01:19.919Z,3.03
2022-09-18T18:06:42.111Z,3.70
2022-09-18T18:12:05.391Z,3.22
2022-09-18T18:17:28.807Z,2.90
2022-09-18T18:22:50.714Z,2.45
2022-09-18T18:28:13.215Z,2.58
2022-09-18T18:33:36.256Z,2.30
2022-09-18T18:38:59.969Z,2.20
2022-09-18T18:44:21.961Z,1.50
2022-09-18T18:49:43.848Z,1.60
2022-09-18T18:55:06.159Z,2.00
2022-09-18T19:00:28.188Z,1.95
2022-09-18T19:05:50.025Z,1.77
2022-09-18T19:11:12.815Z,2.35
2022-09-18T19:16:34.675Z,3.05
2022-09-18T19:21:58.042Z,2.17
2022-09-18T19:27:19.961Z,2.85
2022-09-18T19:32:41.745Z,2.50
2022-09-18T19:38:03.621Z,2.65
2022-09-18T19:43:33.217Z,2.10
2022-09-18T19:48:55.384Z,1.95
2022-09-18T19:54:17.186Z,2.25
2022-09-18T19:59:38.971Z,2.22
2022-09-18T20:05:00.762Z,2.03
2022-09-18T20:10:22.586Z,1.77
2022-09-18T20:15:44.473Z,1.80
2022-09-18T20:21:11.964Z,2.13
2022-09-18T20:26:33.775Z,1.52
2022-09-18T20:31:55.617Z,1.25
2022-09-18T20:37:17.423Z,1.23
2022-09-18T20:42:39.187Z,1.40
2022-09-18T20:48:01.046Z,1.40
2022-09-18T20:53:22.858Z,1.27
2022-09-18T20:58:44.630Z,1.40
2022-09-18T21:04:06.385Z,1.73
2022-09-18T21:09:29.053Z,1.50
2022-09-18T21:14:51.001Z,2.00
2022-09-18T21:20:12.784Z,2.40
2022-09-18T21:25:34.617Z,2.00
2022-09-18T21:31:07.671Z,2.28
2022-09-18T21:36:29.474Z,2.63
2022-09-18T21:41:51.599Z,2.40
2022-09-18T21:47:13.432Z,2.30
2022-09-18T21:52:35.227Z,2.08
2022-09-18T21:57:57.250Z,2.63
2022-09-18T22:03:19.042Z,2.80
2022-09-18T22:08:40.810Z,2.70
2022-09-18T22:14:05.764Z,3.40
2022-09-18T22:19:27.748Z,3.13
2022-09-18T22:24:49.518Z,3.03
2022-09-18T22:30:11.590Z,3.05
2022-09-18T22:35:33.373Z,2.88
2022-09-18T22:40:55.145Z,3.15
2022-09-18T22:46:17.335Z,3.90
2022-09-18T22:51:39.991Z,4.30
2022-09-18T22:57:01.790Z,5.40
2022-09-18T23:02:23.722Z,5.63
2022-09-18T23:07:46.814Z,5.78
2022-09-18T23:13:08.610Z,5.68
2022-09-18T23:18:30.408Z,5.30
2022-09-18T23:23:54.485Z,5.47
2022-09-18T23:29:19.675Z,5.70
2022-09-18T23:34:41.463Z,5.85
2022-09-18T23:40:03.343Z,5.18
2022-09-18T23:45:25.174Z,5.20
2022-09-18T23:50:46.960Z,4.20
2022-09-18T23:56:12.342Z,5.45
